2022年5月28日

时间 代码 天气 温度 能见度 天花板 METAR/SPECI
5:00 上午
V
54 °F 6¼ mi+ - Var Var 2 kt METAR LFCK 280300Z AUTO VRB02KT CAVOK 12/11 Q1020
4:30 上午
V
55 °F 6¼ mi+ - Var Var 2 kt METAR LFCK 280230Z AUTO VRB02KT CAVOK 13/11 Q1020
4:00 上午
V
55 °F 6¼ mi+ - Var Var 2 kt METAR LFCK 280200Z AUTO VRB02KT CAVOK 13/11 Q1020
3:30 上午
V
55 °F 6¼ mi+ - 010° 010° 2 kt METAR LFCK 280130Z AUTO 01002KT CAVOK 13/11 Q1020
3:00 上午
V
57 °F 6¼ mi+ - 360° 360° 3 kt METAR LFCK 280100Z AUTO 36003KT 320V030 CAVOK 14/11 Q1021
2:30 上午
V
59 °F 6¼ mi+ - 340° 340° 3 kt METAR LFCK 280030Z AUTO 34003KT 320V020 CAVOK 15/11 Q1021
2:00 上午
V
61 °F 6¼ mi+ - 340° 340° 3 kt METAR LFCK 280000Z AUTO 34003KT 310V010 CAVOK 16/12 Q1022
1:30 上午
V
63 °F 6¼ mi+ - 330° 330° 4 kt METAR LFCK 272330Z AUTO 33004KT 9999 FEW048 17/12 Q1022
1:00 上午
V
64 °F 6¼ mi+ - 310° 310° 4 kt METAR LFCK 272300Z AUTO 31004KT CAVOK 18/12 Q1022
12:30 上午
V
66 °F 6¼ mi+ - 290° 290° 7 kt METAR LFCK 272230Z AUTO 29007KT CAVOK 19/12 Q1022
12:00 上午
V
68 °F 6¼ mi+ - 290° 290° 9 kt METAR LFCK 272200Z AUTO 29009KT CAVOK 20/12 Q1022

2022年5月27日

时间 代码 天气 温度 能见度 天花板 METAR/SPECI
11:30 下午
V
70 °F 6¼ mi+ - 300° 300° 10 kt METAR LFCK 272130Z AUTO 30010KT CAVOK 21/12 Q1022
11:00 下午
V
72 °F 6¼ mi+ - 290° 290° 11 kt METAR LFCK 272100Z AUTO 29011KT CAVOK 22/12 Q1022 NOSIG
10:30 下午
V
72 °F 6¼ mi+ - 290° 290° 11 kt METAR LFCK 272030Z AUTO 29011KT CAVOK 22/13 Q1022 NOSIG
10:00 下午
V
72 °F 6¼ mi+ - 280° 280° 9 kt METAR LFCK 272000Z AUTO 28009KT CAVOK 22/13 Q1022 NOSIG
9:30 下午
V
73 °F 6¼ mi+ - 280° 280° 10 kt METAR LFCK 271930Z AUTO 28010KT CAVOK 23/13 Q1022 NOSIG
9:00 下午
V
73 °F 6¼ mi+ - 290° 290° 11 kt METAR LFCK 271900Z AUTO 29011KT CAVOK 23/13 Q1022 NOSIG
8:30 下午
V
73 °F 6¼ mi+ - 280° 280° 13 kt METAR LFCK 271830Z AUTO 28013KT CAVOK 23/13 Q1022 NOSIG
8:00 下午
V
75 °F 6¼ mi+ - 290° 290° 12 kt METAR LFCK 271800Z AUTO 29012KT CAVOK 24/13 Q1022 NOSIG
7:30 下午
V
75 °F 6¼ mi+ - 280° 280° 15 kt METAR LFCK 271730Z AUTO 28015KT CAVOK 24/13 Q1021 NOSIG
7:00 下午
V
75 °F 6¼ mi+ - 280° 280° 13 kt METAR LFCK 271700Z AUTO 28013KT CAVOK 24/13 Q1022 NOSIG
6:30 下午
V
77 °F 6¼ mi+ - 280° 280° 13 kt METAR LFCK 271630Z AUTO 28013KT CAVOK 25/13 Q1022 NOSIG
6:00 下午
V
77 °F 6¼ mi+ - 280° 280° 13 kt METAR LFCK 271600Z AUTO 28013KT 260V320 CAVOK 25/13 Q1022 NOSIG
5:30 下午
V
77 °F 6¼ mi+ - 280° 280° 12 kt METAR LFCK 271530Z AUTO 28012KT CAVOK 25/13 Q1022 NOSIG
5:00 下午
V
75 °F 6¼ mi+ - 280° 280° 13 kt METAR LFCK 271500Z AUTO 28013KT CAVOK 24/12 Q1022 NOSIG
4:30 下午
V
75 °F 6¼ mi+ - 280° 280° 12 kt METAR LFCK 271430Z AUTO 28012KT CAVOK 24/12 Q1023 NOSIG
4:00 下午
V
75 °F 6¼ mi+ 4.800 ft 290° 290° 9 kt METAR LFCK 271400Z AUTO 29009KT 260V340 9999 BKN048 24/12 Q1023 NOSIG
3:30 下午
V
73 °F 6¼ mi+ 4.600 ft 290° 290° 11 kt METAR LFCK 271330Z AUTO 29011KT 9999 BKN046 23/12 Q1024 NOSIG
3:00 下午
V
73 °F 6¼ mi+ 4.500 ft 300° 300° 14 kt METAR LFCK 271300Z AUTO 30014KT 270V330 9999 BKN045 BKN052 23/11 Q1024 NOSIG
2:30 下午
V
72 °F 6¼ mi+ 4.300 ft 280° 280° 11 kt METAR LFCK 271230Z AUTO 28011KT 9999 BKN043 22/11 Q1024 NOSIG
2:00 下午
V
72 °F 6¼ mi+ 4.100 ft 290° 290° 12 kt METAR LFCK 271200Z AUTO 29012KT 260V320 9999 BKN041 BKN047 22/11 Q1024 NOSIG
1:30 下午
V
70 °F 6¼ mi+ 4.200 ft 290° 290° 10 kt METAR LFCK 271130Z AUTO 29010KT 250V330 9999 OVC042 21/11 Q1025 NOSIG
1:00 下午
V
70 °F 6¼ mi+ 3.800 ft 300° 300° 12 kt METAR LFCK 271100Z AUTO 30012KT 9999 BKN038 BKN045 21/12 Q1025 NOSIG
12:30 下午
V
68 °F 6¼ mi+ 4.100 ft 300° 300° 12 kt METAR LFCK 271030Z AUTO 30012KT 9999 SCT034 OVC041 20/12 Q1025 NOSIG
12:00 下午
V
68 °F 6¼ mi+ 3.800 ft 310° 310° 11 kt METAR LFCK 271000Z AUTO 31011KT 280V340 9999 SCT031 OVC038 20/12 Q1025 NOSIG
11:30 上午
V
66 °F 6¼ mi+ 3.700 ft 300° 300° 12 kt METAR LFCK 270930Z AUTO 30012KT 9999 SCT028 BKN037 19/12 Q1025 NOSIG
11:00 上午
V
66 °F 6¼ mi+ - 300° 300° 13 kt METAR LFCK 270900Z AUTO 30013KT 270V330 9999 SCT024 19/12 Q1025 NOSIG
10:30 上午
M
64 °F 6¼ mi+ 2.000 ft 310° 310° 11 kt METAR LFCK 270830Z AUTO 31011KT 9999 BKN020 BKN025 18/12 Q1026 NOSIG
10:00 上午
M
63 °F 6¼ mi+ 1.800 ft 330° 330° 9 kt METAR LFCK 270800Z AUTO 33009KT 280V350 9999 BKN018 17/12 Q1026 NOSIG
9:30 上午
M
61 °F 6¼ mi+ 1.700 ft 320° 320° 8 kt METAR LFCK 270730Z AUTO 32008KT 9999 BKN017 16/12 Q1026 NOSIG
9:00 上午
M
61 °F 6¼ mi+ 1.800 ft 310° 310° 8 kt METAR LFCK 270700Z AUTO 31008KT 9999 OVC018 16/12 Q1026 NOSIG
8:30 上午
M
59 °F 6¼ mi+ 1.700 ft 300° 300° 8 kt METAR LFCK 270630Z AUTO 30008KT 270V330 9999 OVC017 15/12 Q1026 NOSIG
8:00 上午
M
59 °F 6¼ mi+ 1.700 ft 280° 280° 6 kt METAR LFCK 270600Z AUTO 28006KT 9999 OVC017 15/12 Q1026 NOSIG
7:30 上午
M
57 °F 6¼ mi+ 1.700 ft 290° 290° 5 kt METAR LFCK 270530Z AUTO 29005KT 9999 BKN017 OVC050 14/12 Q1026 NOSIG
7:00 上午
M
57 °F 6¼ mi+ 1.800 ft 280° 280° 6 kt METAR LFCK 270500Z AUTO 28006KT 9999 OVC018 14/12 Q1026
6:30 上午
M
57 °F 6¼ mi+ 1.800 ft 280° 280° 5 kt METAR LFCK 270430Z AUTO 28005KT 9999 BKN018 OVC050 14/11 Q1026
6:00 上午
M
57 °F 6¼ mi+ 1.900 ft 280° 280° 6 kt METAR LFCK 270400Z AUTO 28006KT 9999 BKN019 OVC050 14/12 Q1026
5:30 上午
V
57 °F 6¼ mi+ 5.200 ft 270° 270° 6 kt METAR LFCK 270330Z AUTO 27006KT 9999 FEW020 OVC052 14/11 Q1026
5:00 上午
V
57 °F 6¼ mi+ - 280° 280° 6 kt METAR LFCK 270300Z AUTO 28006KT CAVOK 14/11 Q1026
4:30 上午
V
57 °F 6¼ mi+ - 280° 280° 6 kt METAR LFCK 270230Z AUTO 28006KT CAVOK 14/11 Q1026
4:00 上午
V
59 °F 6¼ mi+ - 280° 280° 7 kt METAR LFCK 270200Z AUTO 28007KT CAVOK 15/12 Q1026
3:30 上午
V
59 °F 6¼ mi+ 4.900 ft 280° 280° 5 kt METAR LFCK 270130Z AUTO 28005KT 9999 OVC049 15/12 Q1026
3:00 上午
V
59 °F 6¼ mi+ - 270° 270° 5 kt METAR LFCK 270100Z AUTO 27005KT CAVOK 15/12 Q1026
2:30 上午
V
61 °F 6¼ mi+ - 300° 300° 6 kt METAR LFCK 270030Z AUTO 30006KT CAVOK 16/12 Q1026
2:00 上午
V
61 °F 6¼ mi+ - 300° 300° 6 kt METAR LFCK 270000Z AUTO 30006KT CAVOK 16/12 Q1027
1:30 上午
V
61 °F 6¼ mi+ - 300° 300° 6 kt METAR LFCK 262330Z AUTO 30006KT CAVOK 16/12 Q1027
1:00 上午
V
61 °F 6¼ mi+ - 280° 280° 6 kt METAR LFCK 262300Z AUTO 28006KT CAVOK 16/12 Q1027
12:30 上午
V
61 °F 6¼ mi+ - 300° 300° 6 kt METAR LFCK 262230Z AUTO 30006KT CAVOK 16/12 Q1027
12:00 上午
V
63 °F 6¼ mi+ - 290° 290° 6 kt METAR LFCK 262200Z AUTO 29006KT CAVOK 17/12 Q1027

2022年5月26日

时间 代码 天气 温度 能见度 天花板 METAR/SPECI
11:30 下午
V
63 °F 6¼ mi+ - 290° 290° 6 kt METAR LFCK 262130Z AUTO 29006KT CAVOK 17/12 Q1027
11:00 下午
V
63 °F 6¼ mi+ - 280° 280° 5 kt METAR LFCK 262100Z AUTO 28005KT CAVOK 17/11 Q1027 NOSIG
10:30 下午
V
63 °F 6¼ mi+ - 300° 300° 6 kt METAR LFCK 262030Z AUTO 30006KT CAVOK 17/11 Q1027 NOSIG
10:00 下午
V
63 °F 6¼ mi+ - 300° 300° 8 kt METAR LFCK 262000Z AUTO 30008KT CAVOK 17/11 Q1027 NOSIG
9:30 下午
V
64 °F 6¼ mi+ - 300° 300° 9 kt METAR LFCK 261930Z AUTO 30009KT CAVOK 18/11 Q1027 NOSIG
9:00 下午
V
64 °F 6¼ mi+ - 300° 300° 8 kt METAR LFCK 261900Z AUTO 30008KT CAVOK 18/11 Q1026 NOSIG
8:30 下午
V
64 °F 6¼ mi+ - 300° 300° 10 kt METAR LFCK 261830Z AUTO 30010KT CAVOK 18/11 Q1026 NOSIG
8:00 下午
V
64 °F 6¼ mi+ - 300° 300° 11 kt METAR LFCK 261800Z AUTO 30011KT CAVOK 18/11 Q1026 NOSIG
7:30 下午
V
64 °F 6¼ mi+ 5.400 ft 300° 300° 13 kt METAR LFCK 261730Z AUTO 30013KT 9999 FEW031 BKN054 18/11 Q1026 NOSIG
7:00 下午
V
64 °F 6¼ mi+ - 300° 300° 14 kt METAR LFCK 261700Z AUTO 30014KT CAVOK 18/11 Q1026 NOSIG
6:30 下午
V
64 °F 6¼ mi+ 5.400 ft 290° 290° 13 kt METAR LFCK 261630Z AUTO 29013KT 9999 FEW028 OVC054 18/11 Q1026 NOSIG
6:00 下午
V
64 °F 6¼ mi+ 5.200 ft 290° 290° 13 kt METAR LFCK 261600Z AUTO 29013KT 9999 FEW042 OVC052 18/11 Q1026 NOSIG
5:30 下午
V
64 °F 6¼ mi+ 3.600 ft 300° 300° 17 kt METAR LFCK 261530Z AUTO 30017KT 9999 FEW028 BKN036 OVC052 18/11 Q1026 NOSIG
5:00 下午
V
66 °F 6¼ mi+ 5.200 ft 300° 300° 13 kt METAR LFCK 261500Z AUTO 30013KT 270V330 9999 SCT033 OVC052 19/10 Q1027 NOSIG
4:30 下午
V
64 °F 6¼ mi+ 5.200 ft 300° 300° 13 kt METAR LFCK 261430Z AUTO 30013KT 9999 FEW038 SCT045 OVC052 18/10 Q1027 NOSIG
4:00 下午
V
64 °F 6¼ mi+ 4.500 ft 300° 300° 13 kt METAR LFCK 261400Z AUTO 30013KT 9999 SCT035 OVC045 18/10 Q1027 NOSIG
3:30 下午
V
64 °F 6¼ mi+ 3.700 ft 290° 290° 13 kt METAR LFCK 261330Z AUTO 29013KT 9999 BKN037 OVC043 18/10 Q1027 NOSIG
3:00 下午
V
64 °F 6¼ mi+ 3.900 ft 290° 290° 14 kt METAR LFCK 261300Z AUTO 29014KT 9999 BKN039 OVC047 18/09 Q1027 TEMPO 29015G25KT
2:30 下午
V
64 °F 6¼ mi+ 4.100 ft 290° 290° 13 kt METAR LFCK 261230Z AUTO 29013KT 260V320 9999 FEW034 BKN041 OVC052 18/10 Q1027 TEMPO 29015G25KT
2:00 下午
V
63 °F 6¼ mi+ 3.700 ft 290° 290° 15 kt METAR LFCK 261200Z AUTO 29015KT 9999 SCT030 BKN037 BKN043 17/10 Q1027 TEMPO 29015G25KT
1:30 下午
V
63 °F 6¼ mi+ 3.700 ft 300° 300° 16 kt METAR LFCK 261130Z AUTO 30016KT 9999 SCT029 BKN037 OVC050 17/10 Q1027 TEMPO 29015G25KT
1:00 下午
V
64 °F 6¼ mi+ 4.400 ft 310° 310° 16 kt METAR LFCK 261100Z AUTO 31016KT 280V340 9999 BKN044 OVC056 18/08 Q1027 TEMPO 29015G25KT
12:30 下午
V
64 °F 6¼ mi+ 5.000 ft 310° 310° 12 kt METAR LFCK 261030Z AUTO 31012KT 9999 FEW035 SCT044 OVC050 18/09 Q1027 TEMPO 29015G25KT
12:00 下午
V
63 °F 6¼ mi+ 4.300 ft 310° 310° 14 kt METAR LFCK 261000Z AUTO 31014KT 9999 FEW033 BKN043 OVC050 17/09 Q1028 NOSIG
11:30 上午
V
63 °F 6¼ mi+ 4.100 ft 290° 290° 15 kt METAR LFCK 260930Z AUTO 29015KT 9999 SCT034 BKN041 BKN048 17/09 Q1028 NOSIG
11:00 上午
V
63 °F 6¼ mi+ 3.200 ft 300° 300° 14 kt METAR LFCK 260900Z AUTO 30014KT 9999 SCT024 BKN032 BKN040 17/10 Q1028 NOSIG
10:30 上午
M
61 °F 6¼ mi+ 2.100 ft 300° 300° 11 kt METAR LFCK 260830Z AUTO 30011KT 270V350 9999 BKN021 BKN029 BKN034 16/10 Q1028 NOSIG
10:00 上午
M
61 °F 6¼ mi+ 2.200 ft 310° 310° 8 kt METAR LFCK 260800Z AUTO 31008KT 270V340 9999 BKN022 BKN029 16/11 Q1028 NOSIG
9:30 上午
M
57 °F 6¼ mi+ 2.000 ft 290° 290° 7 kt METAR LFCK 260730Z AUTO 29007KT 9999 OVC020 14/10 Q1028 NOSIG
9:00 上午
M
57 °F 6¼ mi+ 1.600 ft 300° 300° 9 kt METAR LFCK 260700Z AUTO 30009KT 9999 OVC016 14/10 Q1028 TEMPO BKN014 BKN035
8:30 上午
M
55 °F 6¼ mi+ 1.500 ft 300° 300° 9 kt METAR LFCK 260630Z AUTO 30009KT 270V330 9999 BKN015 13/10 Q1027 NOSIG
8:00 上午
V
55 °F 6¼ mi+ - 300° 300° 7 kt METAR LFCK 260600Z AUTO 30007KT 9999 FEW016 13/09 Q1027 NOSIG
7:30 上午
V
54 °F 6¼ mi+ - 300° 300° 3 kt METAR LFCK 260530Z AUTO 30003KT CAVOK 12/09 Q1027 NOSIG
7:00 上午
V
54 °F 6¼ mi+ - 310° 310° 6 kt METAR LFCK 260500Z AUTO 31006KT CAVOK 12/09 Q1027
6:30 上午
V
54 °F 6¼ mi+ - 310° 310° 5 kt METAR LFCK 260430Z AUTO 31005KT CAVOK 12/09 Q1027
6:00 上午
V
50 °F 6¼ mi+ - Var Var 2 kt METAR LFCK 260400Z AUTO VRB02KT CAVOK 10/09 Q1026
5:30 上午
V
50 °F 6¼ mi+ - 310° 310° 3 kt METAR LFCK 260330Z AUTO 31003KT 290V350 CAVOK 10/08 Q1026
5:00 上午
V
52 °F 6¼ mi+ - 300° 300° 5 kt METAR LFCK 260300Z AUTO 30005KT CAVOK 11/09 Q1026
4:30 上午
V
54 °F 6¼ mi+ - 280° 280° 5 kt METAR LFCK 260230Z AUTO 28005KT CAVOK 12/09 Q1026
4:00 上午
V
55 °F 6¼ mi+ - 300° 300° 6 kt METAR LFCK 260200Z AUTO 30006KT CAVOK 13/10 Q1026
3:30 上午
V
55 °F 6¼ mi+ - 310° 310° 7 kt METAR LFCK 260130Z AUTO 31007KT CAVOK 13/10 Q1026
3:00 上午
V
55 °F 6¼ mi+ - 310° 310° 7 kt METAR LFCK 260100Z AUTO 31007KT CAVOK 13/10 Q1026
2:30 上午
V
57 °F 6¼ mi+ - 290° 290° 4 kt METAR LFCK 260030Z AUTO 29004KT CAVOK 14/10 Q1026
2:00 上午
V
57 °F 6¼ mi+ - Var Var 3 kt METAR LFCK 260000Z AUTO VRB03KT CAVOK 14/10 Q1026
1:30 上午
V
57 °F 6¼ mi+ - 300° 300° 5 kt METAR LFCK 252330Z AUTO 30005KT CAVOK 14/10 Q1026
1:00 上午
V
59 °F 6¼ mi+ - 290° 290° 5 kt METAR LFCK 252300Z AUTO 29005KT CAVOK 15/10 Q1026
12:30 上午
V
59 °F 6¼ mi+ - 290° 290° 6 kt METAR LFCK 252230Z AUTO 29006KT CAVOK 15/09 Q1026
12:00 上午
V
59 °F 6¼ mi+ - 280° 280° 7 kt METAR LFCK 252200Z AUTO 28007KT CAVOK 15/09 Q1026

2022年5月25日

时间 代码 天气 温度 能见度 天花板 METAR/SPECI
11:30 下午
V
61 °F 6¼ mi+ - 280° 280° 10 kt METAR LFCK 252130Z AUTO 28010KT CAVOK 16/09 Q1026
11:00 下午
V
61 °F 6¼ mi+ - 280° 280° 10 kt METAR LFCK 252100Z AUTO 28010KT CAVOK 16/09 Q1026 NOSIG
10:30 下午
V
63 °F 6¼ mi+ - 280° 280° 9 kt METAR LFCK 252030Z AUTO 28009KT CAVOK 17/09 Q1025 NOSIG
10:00 下午
V
64 °F 6¼ mi+ - 280° 280° 10 kt METAR LFCK 252000Z AUTO 28010KT CAVOK 18/09 Q1025 NOSIG
9:30 下午
V
64 °F 6¼ mi+ - 290° 290° 14 kt METAR LFCK 251930Z AUTO 29014KT CAVOK 18/08 Q1024 NOSIG
较旧的数据

下载我们的应用程序

在您的手机和平板电脑上轻松访问所有航空天气。
有许多网站上没有的功能,如离线支持和个人机场列表。

Studio Eveline

Benalmádena
España

我们和第三方通过cookies跟踪您在我们网站上的上网行为。如果您继续,我们认为您同意我们的cookie政策。 了解更多